Terminal Aerodrome Forecast
Issued by NWS

Home | Current Version | Previous Version | Graphics & Text | Print | Product List | Glossary On
Versions: 1 2 3 4 5 6 7 8 9 10 11 12 13 14 15 16
000
FTUS43 KFGF 190500
TAFBJI
TAF
KBJI 190538Z 1906/2006 19007KT 5SM -SN SCT025
     FM190700 27011KT 4SM -SN OVC015
     FM191500 29015G22KT P6SM OVC025
     FM200100 28012KT P6SM BKN050=

USA.gov is the U.S. government's official web portal to all federal, state and local government web resources and services.